createdAt,value
2019-03-25T00:00:18.424Z,1012.07
2019-03-25T00:01:18.407Z,1012.05
2019-03-25T00:02:18.393Z,1012.01
2019-03-25T00:03:18.380Z,1012.00
2019-03-25T00:04:18.392Z,1011.97
2019-03-25T00:05:18.370Z,1011.96
2019-03-25T00:06:18.358Z,1011.93
2019-03-25T00:07:18.340Z,1011.93
2019-03-25T00:08:18.330Z,1011.92
2019-03-25T00:09:18.314Z,1011.89
2019-03-25T00:10:18.306Z,1011.85
2019-03-25T00:11:18.302Z,1011.87
2019-03-25T00:12:18.280Z,1011.88
2019-03-25T00:13:18.274Z,1011.88
2019-03-25T00:14:18.265Z,1011.84
2019-03-25T00:15:18.251Z,1011.87
2019-03-25T00:16:18.249Z,1011.84
2019-03-25T00:17:18.229Z,1011.84
2019-03-25T00:18:18.222Z,1011.82
2019-03-25T00:19:18.211Z,1011.80
2019-03-25T00:20:18.196Z,1011.79
2019-03-25T00:21:18.222Z,1011.73
2019-03-25T00:22:18.187Z,1011.77
2019-03-25T00:23:18.164Z,1011.73
2019-03-25T00:24:18.153Z,1011.72
2019-03-25T00:25:18.148Z,1011.71
2019-03-25T00:26:18.142Z,1011.69
2019-03-25T00:27:18.142Z,1011.67
2019-03-25T00:28:18.111Z,1011.61
2019-03-25T00:29:18.100Z,1011.58
2019-03-25T00:30:18.094Z,1011.60
2019-03-25T00:31:18.083Z,1011.60
2019-03-25T00:32:18.081Z,1011.60
2019-03-25T00:33:18.075Z,1011.58
2019-03-25T00:34:18.051Z,1011.54
2019-03-25T00:35:18.049Z,1011.55
2019-03-25T00:36:18.029Z,1011.55
2019-03-25T00:37:18.019Z,1011.53
2019-03-25T00:38:18.018Z,1011.51
2019-03-25T00:39:17.999Z,1011.55
2019-03-25T00:40:17.986Z,1011.52
2019-03-25T00:41:17.972Z,1011.51
2019-03-25T00:42:17.973Z,1011.55
2019-03-25T00:43:17.967Z,1011.48
2019-03-25T00:44:17.939Z,1011.52
2019-03-25T00:45:17.940Z,1011.52
2019-03-25T00:46:17.917Z,1011.48
2019-03-25T00:47:17.908Z,1011.49
2019-03-25T00:48:17.912Z,1011.49
2019-03-25T00:49:17.887Z,1011.43
2019-03-25T00:50:17.915Z,1011.43
2019-03-25T00:51:17.865Z,1011.41
2019-03-25T00:52:17.859Z,1011.34
2019-03-25T00:53:17.841Z,1011.34
2019-03-25T00:54:17.837Z,1011.39
2019-03-25T00:55:17.822Z,1011.35
2019-03-25T00:56:17.826Z,1011.34
2019-03-25T00:57:17.804Z,1011.28
2019-03-25T00:58:19.089Z,1011.25
2019-03-25T00:59:25.651Z,1011.22
2019-03-25T01:00:17.768Z,1011.22
2019-03-25T01:01:17.779Z,1011.12
2019-03-25T01:02:17.747Z,1011.06
2019-03-25T01:03:17.743Z,1011.04
2019-03-25T01:04:17.730Z,1011.06
2019-03-25T01:05:17.720Z,1011.00
2019-03-25T01:06:17.708Z,1011.03
2019-03-25T01:07:17.705Z,1011.00
2019-03-25T01:08:17.686Z,1010.98
2019-03-25T01:09:17.678Z,1010.93
2019-03-25T01:10:17.669Z,1010.93
2019-03-25T01:11:17.665Z,1010.93
2019-03-25T01:12:17.639Z,1010.91
2019-03-25T01:13:17.631Z,1010.89
2019-03-25T01:14:17.624Z,1010.84
2019-03-25T01:15:17.628Z,1010.85
2019-03-25T01:16:17.611Z,1010.80
2019-03-25T01:17:17.592Z,1010.76
2019-03-25T01:18:17.632Z,1010.72
2019-03-25T01:19:17.571Z,1010.69
2019-03-25T01:20:17.597Z,1010.61
2019-03-25T01:21:17.560Z,1010.58
2019-03-25T01:22:17.577Z,1010.50
2019-03-25T01:23:17.529Z,1010.52
2019-03-25T01:24:17.515Z,1010.53
2019-03-25T01:25:17.502Z,1010.53
2019-03-25T01:26:17.492Z,1010.51
2019-03-25T01:27:17.489Z,1010.54
2019-03-25T01:28:17.491Z,1010.51
2019-03-25T01:29:17.457Z,1010.46
2019-03-25T01:30:17.450Z,1010.43
2019-03-25T01:31:17.452Z,1010.41
2019-03-25T01:32:17.427Z,1010.42
2019-03-25T01:33:17.422Z,1010.41
2019-03-25T01:34:17.458Z,1010.38
2019-03-25T01:35:17.401Z,1010.40
2019-03-25T01:36:17.397Z,1010.41
2019-03-25T01:37:17.381Z,1010.39
2019-03-25T01:38:17.410Z,1010.38
2019-03-25T01:39:17.356Z,1010.31
2019-03-25T01:40:17.340Z,1010.36
2019-03-25T01:41:17.331Z,1010.32
2019-03-25T01:42:17.324Z,1010.30
2019-03-25T01:43:17.315Z,1010.29
2019-03-25T01:44:17.347Z,1010.27
2019-03-25T01:45:17.288Z,1010.28
2019-03-25T01:46:17.282Z,1010.25
2019-03-25T01:47:17.267Z,1010.24
2019-03-25T01:48:17.258Z,1010.24
2019-03-25T01:49:17.249Z,1010.22
2019-03-25T01:50:17.254Z,1010.19
2019-03-25T01:51:17.227Z,1010.16
2019-03-25T01:52:17.216Z,1010.11
2019-03-25T01:53:17.204Z,1010.13
2019-03-25T01:54:17.191Z,1010.08
2019-03-25T01:55:17.190Z,1010.06
2019-03-25T01:56:17.183Z,1010.04
2019-03-25T01:57:17.158Z,1010.03
2019-03-25T01:58:17.150Z,1009.99
2019-03-25T01:59:17.147Z,1009.98
2019-03-25T02:00:17.127Z,1009.99
2019-03-25T02:01:17.124Z,1009.96
2019-03-25T02:02:17.105Z,1009.94
2019-03-25T02:03:17.100Z,1009.96
2019-03-25T02:04:17.131Z,1009.92
2019-03-25T02:05:17.073Z,1009.90
2019-03-25T02:06:17.064Z,1009.86
2019-03-25T02:07:17.056Z,1009.82
2019-03-25T02:08:17.058Z,1009.80
2019-03-25T02:09:17.031Z,1009.80
2019-03-25T02:10:17.029Z,1009.77
2019-03-25T02:11:17.010Z,1009.75
2019-03-25T02:12:16.999Z,1009.79
2019-03-25T02:13:16.995Z,1009.81
2019-03-25T02:14:16.976Z,1009.78
2019-03-25T02:15:16.975Z,1009.74
2019-03-25T02:16:16.960Z,1009.75
2019-03-25T02:17:16.949Z,1009.74
2019-03-25T02:18:16.940Z,1009.67
2019-03-25T02:19:16.930Z,1009.64
2019-03-25T02:20:25.756Z,1009.62
2019-03-25T02:21:17.924Z,1009.61
2019-03-25T02:22:16.894Z,1009.67
2019-03-25T02:23:16.886Z,1009.62
2019-03-25T02:24:16.877Z,1009.57
2019-03-25T02:25:25.340Z,1009.53
2019-03-25T02:26:17.859Z,1009.54
2019-03-25T02:27:16.842Z,1009.56
2019-03-25T02:28:16.835Z,1009.50
2019-03-25T02:29:16.819Z,1009.55
2019-03-25T02:30:16.819Z,1009.43
2019-03-25T02:31:16.814Z,1009.47
2019-03-25T02:32:16.828Z,1009.43
2019-03-25T02:33:16.773Z,1009.41
2019-03-25T02:34:16.767Z,1009.46
2019-03-25T02:35:16.755Z,1009.41
2019-03-25T02:36:16.785Z,1009.40
2019-03-25T02:37:16.731Z,1009.39
2019-03-25T02:38:16.732Z,1009.45
2019-03-25T02:39:16.750Z,1009.40
2019-03-25T02:40:16.701Z,1009.36
2019-03-25T02:41:18.845Z,1009.39
2019-03-25T02:42:16.730Z,1009.34
2019-03-25T02:43:16.669Z,1009.34
2019-03-25T02:44:16.660Z,1009.33
2019-03-25T02:45:16.660Z,1009.28
2019-03-25T02:46:16.637Z,1009.32
2019-03-25T02:47:16.633Z,1009.30
2019-03-25T02:48:16.632Z,1009.30
2019-03-25T02:49:16.606Z,1009.25
2019-03-25T02:50:16.606Z,1009.24
2019-03-25T02:51:16.592Z,1009.22
2019-03-25T02:52:16.574Z,1009.22
2019-03-25T02:53:16.574Z,1009.17
2019-03-25T02:54:16.555Z,1009.16
2019-03-25T02:55:16.641Z,1009.14
2019-03-25T02:56:16.533Z,1009.13
2019-03-25T02:57:16.525Z,1009.11
2019-03-25T02:58:16.534Z,1009.12
2019-03-25T02:59:16.519Z,1009.06
2019-03-25T03:00:16.489Z,1008.99
2019-03-25T03:01:16.475Z,1008.96
2019-03-25T03:02:16.465Z,1008.94
2019-03-25T03:03:16.452Z,1008.93
2019-03-25T03:04:16.467Z,1008.88
2019-03-25T03:05:16.448Z,1008.89
2019-03-25T03:06:16.430Z,1008.89
2019-03-25T03:07:16.417Z,1008.87
2019-03-25T03:08:16.400Z,1008.85
2019-03-25T03:09:16.389Z,1008.79
2019-03-25T03:10:16.416Z,1008.76
2019-03-25T03:11:16.499Z,1008.78
2019-03-25T03:12:16.363Z,1008.77
2019-03-25T03:13:16.381Z,1008.78
2019-03-25T03:14:16.339Z,1008.69
2019-03-25T03:15:16.330Z,1008.67
2019-03-25T03:16:16.338Z,1008.71
2019-03-25T03:17:16.316Z,1008.69
2019-03-25T03:18:16.294Z,1008.68
2019-03-25T03:19:16.280Z,1008.65
2019-03-25T03:20:16.274Z,1008.64
2019-03-25T03:21:16.272Z,1008.66
2019-03-25T03:22:16.259Z,1008.68
2019-03-25T03:23:16.240Z,1008.64
2019-03-25T03:24:16.233Z,1008.71
2019-03-25T03:25:16.214Z,1008.67
2019-03-25T03:26:16.245Z,1008.66
2019-03-25T03:27:16.206Z,1008.65
2019-03-25T03:28:16.208Z,1008.65
2019-03-25T03:29:16.192Z,1008.60
2019-03-25T03:30:16.186Z,1008.67
2019-03-25T03:31:16.170Z,1008.65
2019-03-25T03:32:16.210Z,1008.60
2019-03-25T03:33:16.132Z,1008.56
2019-03-25T03:34:16.121Z,1008.51
2019-03-25T03:35:16.116Z,1008.47
2019-03-25T03:36:16.099Z,1008.45
2019-03-25T03:37:16.088Z,1008.42
2019-03-25T03:38:16.089Z,1008.40
2019-03-25T03:39:16.071Z,1008.36
2019-03-25T03:40:16.057Z,1008.33
2019-03-25T03:41:16.055Z,1008.30
2019-03-25T03:42:16.044Z,1008.27
2019-03-25T03:43:16.024Z,1008.26
2019-03-25T03:44:16.015Z,1008.26
2019-03-25T03:45:16.011Z,1008.25
2019-03-25T03:46:16.003Z,1008.23
2019-03-25T03:47:15.989Z,1008.25
2019-03-25T03:48:15.975Z,1008.25
2019-03-25T03:49:15.960Z,1008.25
2019-03-25T03:50:15.948Z,1008.27
2019-03-25T03:51:15.944Z,1008.19
2019-03-25T03:52:15.932Z,1008.21
2019-03-25T03:53:15.916Z,1008.23
2019-03-25T03:54:15.902Z,1008.13
2019-03-25T03:55:15.898Z,1008.11
2019-03-25T03:56:15.885Z,1008.09
2019-03-25T03:57:15.889Z,1008.12
2019-03-25T03:58:15.862Z,1008.08
2019-03-25T03:59:15.869Z,1008.09
2019-03-25T04:00:15.840Z,1008.05
2019-03-25T04:01:15.830Z,1008.03
2019-03-25T04:02:15.825Z,1008.06
2019-03-25T04:03:15.812Z,1008.06
2019-03-25T04:04:15.811Z,1008.01
2019-03-25T04:05:15.833Z,1008.06
2019-03-25T04:06:15.775Z,1008.07
2019-03-25T04:07:15.770Z,1008.02
2019-03-25T04:08:15.753Z,1008.09
2019-03-25T04:09:15.746Z,1007.96
2019-03-25T04:10:15.735Z,1007.96
2019-03-25T04:11:15.731Z,1007.90
2019-03-25T04:12:15.709Z,1007.95
2019-03-25T04:13:15.710Z,1007.88
2019-03-25T04:14:15.710Z,1007.81
2019-03-25T04:15:15.683Z,1007.81
2019-03-25T04:16:15.678Z,1007.74
2019-03-25T04:17:15.663Z,1007.76
2019-03-25T04:18:15.655Z,1007.72
2019-03-25T04:19:15.656Z,1007.69
2019-03-25T04:20:15.662Z,1007.69
2019-03-25T04:21:15.619Z,1007.69
2019-03-25T04:22:15.612Z,1007.64
2019-03-25T04:23:15.605Z,1007.69
2019-03-25T04:24:15.592Z,1007.66
2019-03-25T04:25:15.573Z,1007.58
2019-03-25T04:26:27.582Z,1007.61
2019-03-25T04:27:16.552Z,1007.61
2019-03-25T04:28:15.554Z,1007.62
2019-03-25T04:29:15.535Z,1007.56
2019-03-25T04:30:15.527Z,1007.52
2019-03-25T04:31:15.523Z,1007.57
2019-03-25T04:32:15.544Z,1007.50
2019-03-25T04:33:15.487Z,1007.49
2019-03-25T04:34:15.483Z,1007.46
2019-03-25T04:35:15.498Z,1007.42
2019-03-25T04:36:15.466Z,1007.37
2019-03-25T04:37:15.440Z,1007.39
2019-03-25T04:38:15.431Z,1007.39
2019-03-25T04:39:15.427Z,1007.41
2019-03-25T04:40:15.427Z,1007.38
2019-03-25T04:41:15.418Z,1007.32
2019-03-25T04:42:23.190Z,1007.36
2019-03-25T04:43:23.226Z,1007.36
2019-03-25T04:44:23.237Z,1007.36
2019-03-25T04:45:23.256Z,1007.36
2019-03-25T04:46:22.398Z,1007.32
2019-03-25T04:47:23.321Z,1007.32
2019-03-25T04:48:23.335Z,1007.25
2019-03-25T04:49:22.861Z,1007.20
2019-03-25T04:50:22.884Z,1007.16
2019-03-25T04:51:22.350Z,1007.16
2019-03-25T04:52:22.926Z,1007.16
2019-03-25T04:53:22.946Z,1007.13
2019-03-25T04:54:22.329Z,1007.07
2019-03-25T04:55:22.981Z,1007.08
2019-03-25T04:56:22.310Z,1007.00
2019-03-25T04:57:23.035Z,1007.05
2019-03-25T04:58:15.223Z,1007.01
2019-03-25T04:59:23.286Z,1007.05
2019-03-25T05:00:23.070Z,1007.05
2019-03-25T05:01:23.105Z,1007.12
2019-03-25T05:02:15.180Z,1007.10
2019-03-25T05:03:15.173Z,1007.05
2019-03-25T05:04:15.195Z,1007.05
2019-03-25T05:05:15.149Z,1007.02
2019-03-25T05:06:23.130Z,1006.97
2019-03-25T05:07:23.152Z,1006.97
2019-03-25T05:08:15.117Z,1007.00
2019-03-25T05:09:15.100Z,1006.93
2019-03-25T05:10:15.101Z,1006.94
2019-03-25T05:11:15.093Z,1006.90
2019-03-25T05:12:22.671Z,1006.87
2019-03-25T05:13:22.695Z,1006.86
2019-03-25T05:14:15.061Z,1006.84
2019-03-25T05:17:39.849Z,1006.78
2019-03-25T05:18:47.578Z,1006.79
2019-03-25T05:19:46.872Z,1006.77
2019-03-25T05:20:47.625Z,1006.72
2019-03-25T05:21:48.649Z,1006.71
2019-03-25T05:22:47.656Z,1006.65
2019-03-25T05:23:39.780Z,1006.62
2019-03-25T05:24:39.778Z,1006.63
2019-03-25T05:25:39.760Z,1006.61
2019-03-25T05:26:50.268Z,1006.59
2019-03-25T05:27:40.733Z,1006.56
2019-03-25T05:28:39.727Z,1006.55
2019-03-25T05:29:39.724Z,1006.54
2019-03-25T05:30:39.709Z,1006.60
2019-03-25T05:31:39.737Z,1006.60
2019-03-25T05:32:39.690Z,1006.60
2019-03-25T05:33:39.674Z,1006.56
2019-03-25T05:34:39.659Z,1006.55
2019-03-25T05:35:39.646Z,1006.52
2019-03-25T05:36:39.636Z,1006.47
2019-03-25T05:37:39.637Z,1006.38
2019-03-25T05:38:39.615Z,1006.40
2019-03-25T05:39:39.609Z,1006.40
2019-03-25T05:40:39.599Z,1006.41
2019-03-25T05:41:39.587Z,1006.39
2019-03-25T05:42:39.593Z,1006.40
2019-03-25T05:43:39.577Z,1006.37
2019-03-25T05:44:39.557Z,1006.39
2019-03-25T05:45:39.540Z,1006.39
2019-03-25T05:46:39.540Z,1006.34
2019-03-25T05:47:39.524Z,1006.29
2019-03-25T05:48:39.539Z,1006.27
2019-03-25T05:49:39.500Z,1006.27
2019-03-25T05:50:48.190Z,1006.31
2019-03-25T05:51:39.476Z,1006.36
2019-03-25T05:52:47.217Z,1006.30
2019-03-25T05:53:46.559Z,1006.25
2019-03-25T05:54:39.453Z,1006.28
2019-03-25T05:55:40.930Z,1006.36
2019-03-25T05:56:39.432Z,1006.30
2019-03-25T05:57:39.421Z,1006.29
2019-03-25T05:58:39.423Z,1006.28
2019-03-25T05:59:39.390Z,1006.31
2019-03-25T06:00:39.380Z,1006.31
2019-03-25T06:01:39.376Z,1006.28
2019-03-25T06:02:39.399Z,1006.27
2019-03-25T06:03:39.348Z,1006.29
2019-03-25T06:04:39.341Z,1006.26
2019-03-25T06:05:39.331Z,1006.26
2019-03-25T06:06:39.317Z,1006.23
2019-03-25T06:07:39.311Z,1006.18
2019-03-25T06:08:39.305Z,1006.19
2019-03-25T06:09:39.288Z,1006.22
2019-03-25T06:10:39.278Z,1006.21
2019-03-25T06:11:39.268Z,1006.23
2019-03-25T06:12:39.255Z,1006.19
2019-03-25T06:13:39.259Z,1006.23
2019-03-25T06:14:39.299Z,1006.21
2019-03-25T06:15:39.219Z,1006.21
2019-03-25T06:16:39.217Z,1006.24
2019-03-25T06:17:39.202Z,1006.26
2019-03-25T06:18:39.195Z,1006.34
2019-03-25T06:19:39.187Z,1006.34
2019-03-25T06:20:39.181Z,1006.33
2019-03-25T06:21:39.154Z,1006.35
2019-03-25T06:22:39.143Z,1006.34
2019-03-25T06:23:39.163Z,1006.31
2019-03-25T06:24:39.130Z,1006.36
2019-03-25T06:25:39.111Z,1006.36
2019-03-25T06:26:39.112Z,1006.35
2019-03-25T06:27:39.094Z,1006.33
2019-03-25T06:28:39.081Z,1006.30
2019-03-25T06:29:39.079Z,1006.39
2019-03-25T06:30:39.065Z,1006.37
2019-03-25T06:31:39.056Z,1006.43
2019-03-25T06:32:39.042Z,1006.41
2019-03-25T06:33:39.025Z,1006.39
2019-03-25T06:34:39.036Z,1006.39
2019-03-25T06:35:39.012Z,1006.39
2019-03-25T06:36:39.004Z,1006.40
2019-03-25T06:37:39.001Z,1006.40
2019-03-25T06:38:39.034Z,1006.38
2019-03-25T06:39:38.964Z,1006.36
2019-03-25T06:40:38.953Z,1006.40
2019-03-25T06:41:38.962Z,1006.39
2019-03-25T06:42:38.976Z,1006.37
2019-03-25T06:43:38.925Z,1006.40
2019-03-25T06:44:38.913Z,1006.39
2019-03-25T06:45:38.902Z,1006.38
2019-03-25T06:46:38.901Z,1006.44
2019-03-25T06:47:38.884Z,1006.46
2019-03-25T06:48:38.880Z,1006.44
2019-03-25T06:49:38.860Z,1006.52
2019-03-25T06:50:38.843Z,1006.48
2019-03-25T06:51:38.833Z,1006.48
2019-03-25T06:52:38.832Z,1006.44
2019-03-25T06:53:38.830Z,1006.47
2019-03-25T06:54:38.833Z,1006.49
2019-03-25T06:55:38.796Z,1006.47
2019-03-25T06:56:38.785Z,1006.45
2019-03-25T06:57:39.059Z,1006.50
2019-03-25T06:58:38.769Z,1006.47
2019-03-25T06:59:38.754Z,1006.53
2019-03-25T07:00:38.746Z,1006.50
2019-03-25T07:01:38.729Z,1006.50
2019-03-25T07:02:38.717Z,1006.48
2019-03-25T07:03:38.736Z,1006.54
2019-03-25T07:04:38.707Z,1006.50
2019-03-25T07:05:38.691Z,1006.54
2019-03-25T07:06:38.689Z,1006.59
2019-03-25T07:07:38.666Z,1006.63
2019-03-25T07:08:38.669Z,1006.59
2019-03-25T07:09:38.660Z,1006.59
2019-03-25T07:10:38.648Z,1006.58
2019-03-25T07:11:38.672Z,1006.57
2019-03-25T07:12:38.611Z,1006.53
2019-03-25T07:13:38.602Z,1006.55
2019-03-25T07:14:38.604Z,1006.52
2019-03-25T07:15:38.586Z,1006.58
2019-03-25T07:16:38.576Z,1006.57
2019-03-25T07:17:38.564Z,1006.57
2019-03-25T07:18:38.567Z,1006.57
2019-03-25T07:19:38.568Z,1006.54
2019-03-25T07:20:38.536Z,1006.54
2019-03-25T07:21:38.515Z,1006.54
2019-03-25T07:22:38.535Z,1006.50
2019-03-25T07:23:38.501Z,1006.56
2019-03-25T07:24:38.485Z,1006.54
2019-03-25T07:25:38.487Z,1006.55
2019-03-25T07:26:38.476Z,1006.53
2019-03-25T07:27:38.453Z,1006.56
2019-03-25T07:28:38.830Z,1006.55
2019-03-25T07:29:38.442Z,1006.55
2019-03-25T07:30:38.440Z,1006.57
2019-03-25T07:31:38.425Z,1006.56
2019-03-25T07:32:38.404Z,1006.53
2019-03-25T07:33:38.394Z,1006.54
2019-03-25T07:34:38.382Z,1006.56
2019-03-25T07:35:38.377Z,1006.59
2019-03-25T07:36:38.441Z,1006.59
2019-03-25T07:37:38.362Z,1006.60
2019-03-25T07:38:38.335Z,1006.61
2019-03-25T07:39:38.337Z,1006.58
2019-03-25T07:40:38.315Z,1006.63
2019-03-25T07:41:38.354Z,1006.60
2019-03-25T07:42:38.297Z,1006.56
2019-03-25T07:43:38.286Z,1006.61
2019-03-25T07:44:38.278Z,1006.61
2019-03-25T07:45:38.263Z,1006.61
2019-03-25T07:46:38.256Z,1006.69
2019-03-25T07:47:38.263Z,1006.61
2019-03-25T07:48:38.230Z,1006.67
2019-03-25T07:49:38.216Z,1006.62
2019-03-25T07:50:38.211Z,1006.65
2019-03-25T07:51:38.195Z,1006.61
2019-03-25T07:52:38.220Z,1006.64
2019-03-25T07:53:38.197Z,1006.68
2019-03-25T07:54:38.188Z,1006.65
2019-03-25T07:55:38.176Z,1006.67
2019-03-25T07:56:38.141Z,1006.67
2019-03-25T07:57:47.749Z,1006.60
2019-03-25T07:58:39.145Z,1006.70
2019-03-25T07:59:38.134Z,1006.64
2019-03-25T08:00:38.107Z,1006.63
2019-03-25T08:01:38.090Z,1006.62
2019-03-25T08:02:38.093Z,1006.63
2019-03-25T08:03:38.074Z,1006.67
2019-03-25T08:04:38.803Z,1006.65
2019-03-25T08:05:38.048Z,1006.65
2019-03-25T08:06:38.054Z,1006.64
2019-03-25T08:07:38.063Z,1006.71
2019-03-25T08:08:38.027Z,1006.66
2019-03-25T08:09:37.999Z,1006.69
2019-03-25T08:10:38.025Z,1006.72
2019-03-25T08:11:37.981Z,1006.70
2019-03-25T08:12:37.978Z,1006.79
2019-03-25T08:13:37.997Z,1006.71
2019-03-25T08:14:37.961Z,1006.78
2019-03-25T08:15:37.936Z,1006.74
2019-03-25T08:16:37.938Z,1006.79
2019-03-25T08:17:37.920Z,1006.77
2019-03-25T08:18:37.910Z,1006.72
2019-03-25T08:19:37.902Z,1006.75
2019-03-25T08:20:37.900Z,1006.78
2019-03-25T08:21:37.872Z,1006.71
2019-03-25T08:22:37.861Z,1006.74
2019-03-25T08:23:37.851Z,1006.68
2019-03-25T08:24:37.853Z,1006.71
2019-03-25T08:25:37.834Z,1006.72
2019-03-25T08:26:37.828Z,1006.78
2019-03-25T08:27:37.814Z,1006.79
2019-03-25T08:28:37.804Z,1006.79
2019-03-25T08:29:37.793Z,1006.79
2019-03-25T08:30:37.776Z,1006.82
2019-03-25T08:31:37.776Z,1006.78
2019-03-25T08:32:37.762Z,1006.81
2019-03-25T08:33:37.748Z,1006.83
2019-03-25T08:34:37.739Z,1006.87
2019-03-25T08:35:37.729Z,1006.87
2019-03-25T08:36:37.720Z,1006.88
2019-03-25T08:37:37.725Z,1006.92
2019-03-25T08:38:37.703Z,1006.90
2019-03-25T08:39:37.685Z,1006.91
2019-03-25T08:40:37.729Z,1006.94
2019-03-25T08:41:37.665Z,1006.91
2019-03-25T08:42:37.670Z,1006.89
2019-03-25T08:43:37.640Z,1006.96
2019-03-25T08:44:37.642Z,1006.92
2019-03-25T08:45:37.623Z,1006.95
2019-03-25T08:46:37.622Z,1006.93
2019-03-25T08:47:37.613Z,1006.93
2019-03-25T08:48:37.585Z,1006.96
2019-03-25T08:49:37.572Z,1006.94
2019-03-25T08:50:37.566Z,1006.95
2019-03-25T08:51:37.565Z,1006.92
2019-03-25T08:52:37.548Z,1006.95
2019-03-25T08:53:37.533Z,1006.92
2019-03-25T08:54:38.046Z,1006.95
2019-03-25T08:55:37.515Z,1006.93
2019-03-25T08:56:37.520Z,1006.99
2019-03-25T08:57:37.495Z,1007.00
2019-03-25T08:58:37.481Z,1007.01
2019-03-25T08:59:37.471Z,1007.01
2019-03-25T09:00:37.457Z,1007.02
2019-03-25T09:01:37.497Z,1007.08
2019-03-25T09:02:37.435Z,1007.05
2019-03-25T09:03:37.437Z,1007.13
2019-03-25T09:04:37.418Z,1007.08
2019-03-25T09:05:37.408Z,1007.08
2019-03-25T09:06:37.395Z,1007.04
2019-03-25T09:07:37.406Z,1007.07
2019-03-25T09:08:37.370Z,1007.11
2019-03-25T09:09:37.365Z,1007.12
2019-03-25T09:10:37.351Z,1007.11
2019-03-25T09:11:37.341Z,1007.11
2019-03-25T09:12:37.340Z,1007.06
2019-03-25T09:13:37.320Z,1007.11
2019-03-25T09:14:37.308Z,1007.12
2019-03-25T09:15:37.361Z,1007.10
2019-03-25T09:16:37.290Z,1007.08
2019-03-25T09:17:37.311Z,1007.16
2019-03-25T09:18:37.266Z,1007.19
2019-03-25T09:19:37.251Z,1007.22
2019-03-25T09:20:37.247Z,1007.18
2019-03-25T09:21:37.239Z,1007.12
2019-03-25T09:22:37.224Z,1007.17
2019-03-25T09:23:37.222Z,1007.15
2019-03-25T09:24:37.208Z,1007.15
2019-03-25T09:25:37.199Z,1007.13
2019-03-25T09:26:37.180Z,1007.20
2019-03-25T09:27:37.163Z,1007.19
2019-03-25T09:28:37.168Z,1007.22
2019-03-25T09:29:37.147Z,1007.21
2019-03-25T09:30:37.130Z,1007.19
2019-03-25T09:31:37.296Z,1007.22
2019-03-25T09:32:37.115Z,1007.17
2019-03-25T09:33:37.139Z,1007.12
2019-03-25T09:34:37.088Z,1007.16
2019-03-25T09:35:37.081Z,1007.17
2019-03-25T09:36:37.070Z,1007.22
2019-03-25T09:37:37.065Z,1007.22
2019-03-25T09:38:37.058Z,1007.25
2019-03-25T09:39:37.080Z,1007.22
2019-03-25T09:40:37.028Z,1007.35
2019-03-25T09:41:37.019Z,1007.30
2019-03-25T09:42:37.003Z,1007.33
2019-03-25T09:43:37.003Z,1007.30
2019-03-25T09:44:36.985Z,1007.30
2019-03-25T09:45:37.028Z,1007.28
2019-03-25T09:46:36.960Z,1007.38
2019-03-25T09:47:37.986Z,1007.35
2019-03-25T09:48:36.943Z,1007.32
2019-03-25T09:49:36.935Z,1007.33
2019-03-25T09:50:36.922Z,1007.33
2019-03-25T09:51:36.918Z,1007.38
2019-03-25T09:52:38.695Z,1007.32
2019-03-25T09:53:36.897Z,1007.32
2019-03-25T09:54:36.881Z,1007.33
2019-03-25T09:55:36.870Z,1007.33
2019-03-25T09:56:36.876Z,1007.30
2019-03-25T09:57:36.845Z,1007.37
2019-03-25T09:58:36.847Z,1007.37
2019-03-25T09:59:36.817Z,1007.33
2019-03-25T10:00:36.808Z,1007.30
2019-03-25T10:01:36.819Z,1007.31
2019-03-25T10:02:36.791Z,1007.33
2019-03-25T10:03:36.774Z,1007.37
2019-03-25T10:04:36.763Z,1007.34
2019-03-25T10:05:36.753Z,1007.38
2019-03-25T10:06:36.777Z,1007.42
2019-03-25T10:07:36.733Z,1007.48
2019-03-25T10:08:36.730Z,1007.49
2019-03-25T10:09:36.707Z,1007.50
2019-03-25T10:10:36.702Z,1007.53
2019-03-25T10:11:36.687Z,1007.47
2019-03-25T10:12:36.693Z,1007.48
2019-03-25T10:13:36.671Z,1007.45
2019-03-25T10:14:36.671Z,1007.55
2019-03-25T10:15:36.653Z,1007.48
2019-03-25T10:16:37.279Z,1007.52
2019-03-25T10:17:36.621Z,1007.50
2019-03-25T10:18:36.615Z,1007.50
2019-03-25T10:19:36.599Z,1007.42
2019-03-25T10:20:36.606Z,1007.46
2019-03-25T10:21:36.578Z,1007.60
2019-03-25T10:22:36.624Z,1007.50
2019-03-25T10:23:36.564Z,1007.55
2019-03-25T10:24:36.554Z,1007.52
2019-03-25T10:25:36.549Z,1007.51
2019-03-25T10:26:36.526Z,1007.53
2019-03-25T10:27:36.514Z,1007.55
2019-03-25T10:28:47.564Z,1007.62
2019-03-25T10:29:37.495Z,1007.69
2019-03-25T10:30:36.484Z,1007.67
2019-03-25T10:31:36.474Z,1007.67
2019-03-25T10:32:36.461Z,1007.73
2019-03-25T10:33:36.462Z,1007.71
2019-03-25T10:34:36.439Z,1007.71
2019-03-25T10:35:36.431Z,1007.72
2019-03-25T10:36:36.427Z,1007.73
2019-03-25T10:37:36.423Z,1007.73
2019-03-25T10:38:36.428Z,1007.75
2019-03-25T10:39:36.426Z,1007.78
2019-03-25T10:40:36.377Z,1007.75
2019-03-25T10:41:38.472Z,1007.75
2019-03-25T10:42:36.368Z,1007.72
2019-03-25T10:43:36.350Z,1007.76
2019-03-25T10:44:36.329Z,1007.69
2019-03-25T10:45:36.318Z,1007.77
2019-03-25T10:46:36.311Z,1007.78
2019-03-25T10:47:36.305Z,1007.76
2019-03-25T10:48:36.296Z,1007.72
2019-03-25T10:49:36.275Z,1007.77
2019-03-25T10:50:36.270Z,1007.72
2019-03-25T10:51:36.258Z,1007.78
2019-03-25T10:52:36.248Z,1007.75
2019-03-25T10:53:36.302Z,1007.71
2019-03-25T10:54:36.257Z,1007.70
2019-03-25T10:55:36.222Z,1007.64
2019-03-25T10:56:36.198Z,1007.67
2019-03-25T10:57:36.187Z,1007.65
2019-03-25T10:58:36.177Z,1007.65
2019-03-25T10:59:36.182Z,1007.67
2019-03-25T11:00:36.166Z,1007.78
2019-03-25T11:01:36.144Z,1007.74
2019-03-25T11:02:36.136Z,1007.74
2019-03-25T11:03:36.123Z,1007.73
2019-03-25T11:04:36.117Z,1007.78
2019-03-25T11:05:36.116Z,1007.75
2019-03-25T11:06:36.094Z,1007.74
2019-03-25T11:07:36.223Z,1007.76
2019-03-25T11:08:36.072Z,1007.73
2019-03-25T11:09:36.061Z,1007.78
2019-03-25T11:10:36.064Z,1007.59
2019-03-25T11:11:36.039Z,1007.74
2019-03-25T11:12:36.028Z,1007.70
2019-03-25T11:13:36.019Z,1007.60
2019-03-25T11:14:36.012Z,1007.57
2019-03-25T11:15:36.022Z,1007.63
2019-03-25T11:16:35.991Z,1007.72
2019-03-25T11:17:35.982Z,1007.66
2019-03-25T11:18:35.967Z,1007.67
2019-03-25T11:19:35.947Z,1007.69
2019-03-25T11:20:35.945Z,1007.79
2019-03-25T11:21:35.924Z,1007.63
2019-03-25T11:22:43.809Z,1007.63
2019-03-25T11:23:35.916Z,1007.55
2019-03-25T11:24:35.898Z,1007.68
2019-03-25T11:25:35.895Z,1007.66
2019-03-25T11:26:35.873Z,1007.67
2019-03-25T11:27:35.860Z,1007.67
2019-03-25T11:28:35.902Z,1007.71
2019-03-25T11:29:35.839Z,1007.71
2019-03-25T11:30:35.879Z,1007.73
2019-03-25T11:31:35.816Z,1007.69
2019-03-25T11:32:35.804Z,1007.75
2019-03-25T11:33:36.298Z,1007.74
2019-03-25T11:34:35.788Z,1007.81
2019-03-25T11:35:39.272Z,1007.79
2019-03-25T11:37:44.934Z,1007.74
2019-03-25T11:38:44.707Z,1007.84
2019-03-25T11:39:45.433Z,1007.80
2019-03-25T11:40:46.304Z,1007.78
2019-03-25T11:41:44.800Z,1007.82
2019-03-25T11:44:00.776Z,1007.79
2019-03-25T11:45:02.064Z,1007.92
2019-03-25T11:46:00.511Z,1008.00
2019-03-25T11:47:00.441Z,1007.87
2019-03-25T11:48:00.625Z,1007.87
2019-03-25T11:49:00.409Z,1007.76
2019-03-25T11:50:00.394Z,1007.77
2019-03-25T11:51:00.663Z,1007.77
2019-03-25T11:52:00.386Z,1007.70
2019-03-25T11:53:00.366Z,1007.72
2019-03-25T11:54:00.366Z,1007.70
2019-03-25T11:55:00.356Z,1007.66
2019-03-25T11:56:00.330Z,1007.69
2019-03-25T11:57:00.322Z,1007.70
2019-03-25T11:58:00.320Z,1007.64
2019-03-25T11:59:00.301Z,1007.67
2019-03-25T12:00:00.345Z,1007.68
2019-03-25T12:01:00.280Z,1007.71
2019-03-25T12:02:00.264Z,1007.67
2019-03-25T12:03:00.258Z,1007.66
2019-03-25T12:04:00.248Z,1007.65
2019-03-25T12:05:00.326Z,1007.63
2019-03-25T12:06:00.225Z,1007.59
2019-03-25T12:07:00.219Z,1007.59
2019-03-25T12:08:00.202Z,1007.58
2019-03-25T12:09:00.203Z,1007.64
2019-03-25T12:10:00.294Z,1007.57